Terminal Aerodrome Forecast
Issued by NWS

Home | Current Version | Previous Version | Text Only | Print | Product List | Glossary On
Versions: 1 2 3 4 5 6 7 8 9 10 11 12 13 14 15 16 17
000
FTUS43 KGRB 300500
TAFATW
TAF
KATW 300520Z 3006/3106 VRB03KT 6SM BR SCT012 SCT090
      TEMPO 3009/3012 1SM BR
     FM301400 34003KT P6SM SCT020 SCT070
     FM302000 23005KT P6SM VCSH SCT035 BKN060=

USA.gov is the U.S. government's official web portal to all federal, state and local government web resources and services.